Time;durP1;ratioP1;P1;durP2;ratioP2;P2;SDS_P1;SDS_P2;PMS_P1;PMS_P2;Temp;Humidity;BMP_temperature;BMP_pressure;BME280_temperature;BME280_humidity;BME280_pressure;Samples;Min_cycle;Max_cycle;Signal;HPM_P1;HPM_P2
2023/05/15 00:02:13;;;;;;;60.03;36.70;;;11.00;99.90;;;;;;5047483;28;20128;-62
2023/05/15 00:04:38;;;;;;;54.25;35.47;;;11.00;99.90;;;;;;5039954;28;20045;-62
2023/05/15 00:07:04;;;;;;;67.43;41.55;;;11.00;99.90;;;;;;5039367;28;20631;-62
2023/05/15 00:09:30;;;;;;;48.88;33.63;;;10.90;99.90;;;;;;5046960;28;20055;-62
2023/05/15 00:11:56;;;;;;;41.67;30.52;;;10.80;99.90;;;;;;5040094;28;20067;-61
2023/05/15 00:14:21;;;;;;;56.72;35.85;;;10.80;99.90;;;;;;5038002;28;20057;-61
2023/05/15 00:16:47;;;;;;;64.07;38.53;;;10.80;99.90;;;;;;5036994;28;20787;-62
2023/05/15 00:19:13;;;;;;;48.03;32.00;;;10.80;99.90;;;;;;5036706;28;20063;-61
2023/05/15 00:21:39;;;;;;;44.13;30.25;;;10.70;99.90;;;;;;5039313;28;20118;-61
2023/05/15 00:24:04;;;;;;;41.72;29.95;;;10.70;99.90;;;;;;5047339;28;20484;-62
2023/05/15 00:26:30;;;;;;;40.95;29.92;;;10.60;99.90;;;;;;5037919;28;20064;-62
2023/05/15 00:28:56;;;;;;;44.90;31.15;;;10.50;99.90;;;;;;5036915;28;20439;-63
2023/05/15 00:31:21;;;;;;;48.75;30.83;;;10.60;99.90;;;;;;5035663;28;20048;-62
2023/05/15 00:33:47;;;;;;;69.78;39.78;;;10.50;99.90;;;;;;5041299;28;20029;-60
2023/05/15 00:36:13;;;;;;;45.22;30.88;;;10.50;99.90;;;;;;5044826;28;20033;-60
2023/05/15 00:38:39;;;;;;;44.88;31.52;;;10.50;99.90;;;;;;5043963;28;20391;-61
2023/05/15 00:41:06;;;;;;;53.05;33.65;;;10.50;99.90;;;;;;5046578;28;20068;-62
2023/05/15 00:43:33;;;;;;;58.08;35.03;;;10.50;99.90;;;;;;5039313;28;20131;-62
2023/05/15 00:46:00;;;;;;;55.30;32.58;;;10.50;99.90;;;;;;5036465;28;20059;-63
2023/05/15 00:48:28;;;;;;;47.10;29.40;;;10.40;99.90;;;;;;5037824;28;20411;-62
2023/05/15 00:50:56;;;;;;;42.75;29.70;;;10.40;99.90;;;;;;5042929;28;20055;-60
2023/05/15 00:53:22;;;;;;;52.67;33.72;;;10.40;99.90;;;;;;5043376;28;20041;-60
2023/05/15 00:55:48;;;;;;;46.60;31.83;;;10.30;99.90;;;;;;5046047;28;20045;-60
2023/05/15 00:58:15;;;;;;;43.22;27.95;;;10.30;99.90;;;;;;5059503;28;20045;-61
2023/05/15 01:00:42;;;;;;;85.28;28.52;;;10.20;99.90;;;;;;5037467;28;20549;-61
2023/05/15 01:03:08;;;;;;;54.25;33.17;;;10.10;99.90;;;;;;5040514;28;20484;-61
2023/05/15 01:05:34;;;;;;;52.08;33.42;;;10.10;99.90;;;;;;5047589;28;20056;-61
2023/05/15 01:08:14;;;;;;;47.70;32.78;;;10.10;99.90;;;;;;5028428;28;20111;-61
2023/05/15 01:10:42;;;;;;;48.08;32.10;;;10.20;99.90;;;;;;5040332;28;20051;-62
2023/05/15 01:13:12;;;;;;;49.13;30.17;;;10.20;99.90;;;;;;5041981;28;20492;-62
2023/05/15 01:15:38;;;;;;;44.30;28.90;;;10.20;99.90;;;;;;5063291;28;20049;-60
2023/05/15 01:18:04;;;;;;;41.20;29.08;;;10.10;99.90;;;;;;5050380;28;20060;-62
2023/05/15 01:20:40;;;;;;;47.05;29.33;;;10.20;99.90;;;;;;5048614;28;20484;-62
2023/05/15 01:23:19;;;;;;;48.05;29.02;;;10.20;99.90;;;;;;5046353;28;20040;-62
2023/05/15 01:25:52;;;;;;;48.70;29.63;;;10.20;99.90;;;;;;5052594;28;20037;-63
2023/05/15 01:28:24;;;;;;;42.72;28.60;;;10.10;99.90;;;;;;5045965;28;20048;-60
2023/05/15 01:30:53;;;;;;;47.00;30.45;;;10.10;99.90;;;;;;5059441;28;20636;-60
2023/05/15 01:33:33;;;;;;;39.67;28.50;;;10.20;99.90;;;;;;5042020;28;20387;-62
2023/05/15 01:36:04;;;;;;;51.25;30.30;;;10.10;99.90;;;;;;5048216;28;20067;-61
2023/05/15 01:38:57;;;;;;;54.38;34.65;;;10.10;99.90;;;;;;5046908;28;20041;-60
2023/05/15 01:41:35;;;;;;;53.88;34.10;;;10.00;99.90;;;;;;5047599;28;20069;-61
2023/05/15 01:44:19;;;;;;;46.38;31.23;;;10.10;99.90;;;;;;5048021;28;20044;-61
2023/05/15 01:46:49;;;;;;;53.78;29.45;;;10.10;99.90;;;;;;5064741;28;20405;-62
2023/05/15 01:49:18;;;;;;;52.53;33.85;;;10.10;99.90;;;;;;5049474;28;20553;-61
2023/05/15 01:51:47;;;;;;;50.83;33.70;;;10.10;99.90;;;;;;5050694;28;20597;-62
2023/05/15 01:54:15;;;;;;;77.45;32.55;;;10.00;99.90;;;;;;5050397;28;20417;-62
2023/05/15 01:56:43;;;;;;;49.97;31.65;;;10.00;99.90;;;;;;5067481;28;20041;-62
2023/05/15 01:59:12;;;;;;;58.42;35.92;;;10.00;99.90;;;;;;5048598;28;20037;-61
2023/05/15 02:01:40;;;;;;;47.60;32.63;;;10.00;99.90;;;;;;5049897;28;20488;-59
2023/05/15 02:04:07;;;;;;;51.30;34.92;;;10.00;99.90;;;;;;5051452;28;20069;-62
2023/05/15 02:06:33;;;;;;;59.97;35.17;;;10.00;99.90;;;;;;5033247;28;20041;-62
2023/05/15 02:09:01;;;;;;;44.70;30.42;;;10.00;99.90;;;;;;5051611;28;20056;-62
2023/05/15 02:11:27;;;;;;;38.95;29.02;;;10.00;99.90;;;;;;5046123;28;20045;-61
2023/05/15 02:13:55;;;;;;;37.75;28.80;;;10.10;99.90;;;;;;5046321;28;20055;-63
2023/05/15 02:16:21;;;;;;;38.97;28.10;;;10.00;99.90;;;;;;5047375;28;20055;-61
2023/05/15 02:18:47;;;;;;;38.17;27.73;;;9.90;99.90;;;;;;5050366;28;20116;-62
2023/05/15 02:21:13;;;;;;;39.25;29.08;;;9.90;99.90;;;;;;5048855;28;20036;-61
2023/05/15 02:23:39;;;;;;;39.95;28.55;;;9.90;99.90;;;;;;5042038;28;20131;-62
2023/05/15 02:26:44;;;;;;;40.75;29.02;;;9.80;99.90;;;;;;5031937;28;20139;-60
2023/05/15 02:29:20;;;;;;;38.10;27.70;;;9.80;99.90;;;;;;5048127;28;20064;-62
2023/05/15 02:32:04;;;;;;;36.17;26.77;;;9.80;99.90;;;;;;5049304;28;20043;-62
2023/05/15 02:34:54;;;;;;;37.28;26.70;;;9.80;99.90;;;;;;5039733;28;20174;-61
2023/05/15 02:37:27;;;;;;;37.13;27.73;;;9.80;99.90;;;;;;5036200;28;20049;-61
2023/05/15 02:39:56;;;;;;;36.00;27.60;;;9.80;99.90;;;;;;5042384;28;20030;-61
2023/05/15 02:42:23;;;;;;;37.50;27.08;;;9.80;99.90;;;;;;5046292;28;20118;-62
2023/05/15 02:44:51;;;;;;;42.88;29.08;;;9.80;99.90;;;;;;5046183;28;20459;-63
2023/05/15 02:47:18;;;;;;;42.03;28.88;;;9.90;99.90;;;;;;5048962;28;20106;-61
2023/05/15 02:49:44;;;;;;;36.88;26.63;;;9.90;99.90;;;;;;5046702;28;20041;-60
2023/05/15 02:52:10;;;;;;;35.20;26.77;;;9.90;99.90;;;;;;5048665;28;20100;-60
2023/05/15 02:54:35;;;;;;;35.28;25.90;;;9.90;99.90;;;;;;5049353;28;20510;-60
2023/05/15 02:57:01;;;;;;;35.03;25.92;;;9.90;99.90;;;;;;5049834;28;20158;-61
2023/05/15 02:59:27;;;;;;;29.38;22.15;;;9.90;99.90;;;;;;5048841;28;20044;-61
2023/05/15 03:01:52;;;;;;;29.20;23.70;;;9.90;99.90;;;;;;5050985;28;20036;-61
2023/05/15 03:04:18;;;;;;;32.92;24.85;;;9.90;99.90;;;;;;5049021;28;20040;-62
2023/05/15 03:06:43;;;;;;;53.90;24.42;;;9.80;99.90;;;;;;5064623;28;20052;-60
2023/05/15 03:09:09;;;;;;;37.38;25.58;;;9.80;99.90;;;;;;5049603;28;20045;-60
2023/05/15 03:11:35;;;;;;;38.92;27.25;;;9.80;99.90;;;;;;5050635;28;20064;-62
2023/05/15 03:14:00;;;;;;;39.65;26.02;;;9.80;99.90;;;;;;5047908;28;20647;-61
2023/05/15 03:16:27;;;;;;;41.70;26.70;;;9.80;99.90;;;;;;5047633;28;20116;-59
2023/05/15 03:18:53;;;;;;;36.72;25.75;;;9.70;99.90;;;;;;5029846;28;20448;-63
2023/05/15 03:21:19;;;;;;;33.53;24.63;;;9.80;99.90;;;;;;5037276;28;20044;-61
2023/05/15 03:23:44;;;;;;;35.95;24.42;;;9.70;99.90;;;;;;5037726;28;20056;-62
2023/05/15 03:26:10;;;;;;;32.20;24.42;;;9.70;99.90;;;;;;5042580;28;20511;-61
2023/05/15 03:28:37;;;;;;;31.50;24.70;;;9.60;99.90;;;;;;5049078;28;20032;-60
2023/05/15 03:31:03;;;;;;;36.25;26.48;;;9.60;99.90;;;;;;5033283;28;20033;-62
2023/05/15 03:33:30;;;;;;;34.75;25.77;;;9.50;99.90;;;;;;5044066;28;20048;-62
2023/05/15 03:35:56;;;;;;;35.88;27.20;;;9.50;99.90;;;;;;5060257;28;20045;-60
2023/05/15 03:38:21;;;;;;;38.88;27.27;;;9.50;99.90;;;;;;5047251;28;20048;-61
2023/05/15 03:40:47;;;;;;;36.08;26.77;;;9.50;99.90;;;;;;5048468;28;20033;-60
2023/05/15 03:43:12;;;;;;;41.00;28.63;;;9.50;99.90;;;;;;5047525;28;20037;-61
2023/05/15 03:45:38;;;;;;;38.40;27.40;;;9.60;99.90;;;;;;5046739;28;20036;-61
2023/05/15 03:48:04;;;;;;;36.72;27.95;;;9.60;99.90;;;;;;5046392;28;20577;-62
2023/05/15 03:50:30;;;;;;;41.83;28.95;;;9.60;99.90;;;;;;5045621;28;20779;-63
2023/05/15 03:52:56;;;;;;;35.05;26.00;;;9.60;99.90;;;;;;5048298;28;20147;-60
2023/05/15 03:55:22;;;;;;;39.03;26.05;;;9.60;99.90;;;;;;5045069;28;20110;-61
2023/05/15 03:57:48;;;;;;;33.70;25.05;;;9.60;99.90;;;;;;5046293;28;20044;-62
2023/05/15 04:00:14;;;;;;;31.35;22.98;;;9.50;99.90;;;;;;5046089;28;20032;-60
2023/05/15 04:02:40;;;;;;;35.17;24.58;;;9.50;99.90;;;;;;5047926;28;20037;-61
2023/05/15 04:05:06;;;;;;;34.80;24.63;;;9.50;99.90;;;;;;5048088;28;20428;-62
2023/05/15 04:07:33;;;;;;;32.72;25.00;;;9.40;99.90;;;;;;5059160;28;20041;-62
2023/05/15 04:10:02;;;;;;;28.40;22.95;;;9.40;99.90;;;;;;5048592;28;20043;-60
2023/05/15 04:12:28;;;;;;;32.15;23.17;;;9.40;99.90;;;;;;5046772;28;20454;-60
2023/05/15 04:15:21;;;;;;;29.77;23.20;;;9.30;99.90;;;;;;5063091;28;20045;-61
2023/05/15 04:17:51;;;;;;;28.77;22.20;;;9.40;99.90;;;;;;5045723;28;20506;-60
2023/05/15 04:20:19;;;;;;;29.45;22.67;;;9.40;99.90;;;;;;5045411;28;20099;-62
2023/05/15 04:22:45;;;;;;;29.98;23.45;;;9.40;99.90;;;;;;5048862;28;20044;-62
2023/05/15 04:25:13;;;;;;;28.02;22.63;;;9.40;99.90;;;;;;5034286;28;20047;-61
2023/05/15 04:27:39;;;;;;;27.45;21.70;;;9.40;99.90;;;;;;5038707;28;20395;-61
2023/05/15 04:30:06;;;;;;;28.73;23.13;;;9.40;99.90;;;;;;5038111;28;20036;-59
2023/05/15 04:32:33;;;;;;;30.25;22.38;;;9.40;99.90;;;;;;5033687;28;20123;-61
2023/05/15 04:35:00;;;;;;;30.05;22.60;;;9.50;99.90;;;;;;5034728;28;20047;-61
2023/05/15 04:37:26;;;;;;;34.10;23.50;;;9.40;99.90;;;;;;5042011;28;20159;-60
2023/05/15 04:39:52;;;;;;;32.15;23.33;;;9.40;99.90;;;;;;5036719;28;20055;-62
2023/05/15 04:42:17;;;;;;;30.80;22.70;;;9.40;99.90;;;;;;5048618;28;20046;-61
2023/05/15 04:44:43;;;;;;;32.33;22.88;;;9.40;99.90;;;;;;5048477;28;20068;-62
2023/05/15 04:47:10;;;;;;;34.38;23.25;;;9.40;99.90;;;;;;5047316;28;20484;-63
2023/05/15 04:49:36;;;;;;;29.58;23.45;;;9.50;99.90;;;;;;5048829;28;20051;-63
2023/05/15 04:52:01;;;;;;;28.02;22.05;;;9.50;99.90;;;;;;5050582;28;20045;-61
2023/05/15 04:54:27;;;;;;;27.50;21.13;;;9.50;99.90;;;;;;5050493;28;20142;-61
2023/05/15 04:56:53;;;;;;;27.63;20.58;;;9.50;99.90;;;;;;5036774;28;20034;-61
2023/05/15 04:59:18;;;;;;;26.13;21.10;;;9.50;99.90;;;;;;5043078;28;20549;-61
2023/05/15 05:01:44;;;;;;;28.63;21.90;;;9.50;99.90;;;;;;5042968;28;20045;-63
2023/05/15 05:04:10;;;;;;;27.17;19.95;;;9.40;99.90;;;;;;5067492;28;20495;-62
2023/05/15 05:06:35;;;;;;;26.42;20.42;;;9.40;99.90;;;;;;5051434;28;20051;-61
2023/05/15 05:09:02;;;;;;;31.42;22.83;;;9.40;99.90;;;;;;5032905;28;20052;-62
2023/05/15 05:11:27;;;;;;;30.90;23.00;;;9.40;99.90;;;;;;5051476;28;20032;-62
2023/05/15 05:13:53;;;;;;;36.70;24.80;;;9.40;99.90;;;;;;5053732;28;20041;-60
2023/05/15 05:16:19;;;;;;;28.63;21.38;;;9.40;99.90;;;;;;5029025;28;20056;-59
2023/05/15 05:18:44;;;;;;;24.77;20.48;;;9.50;99.90;;;;;;5051769;28;20044;-63
2023/05/15 05:21:10;;;;;;;28.42;21.65;;;9.50;99.90;;;;;;5048496;28;20442;-62
2023/05/15 05:23:36;;;;;;;28.70;21.17;;;9.60;99.90;;;;;;5066152;28;20432;-62
2023/05/15 05:26:02;;;;;;;26.95;21.33;;;9.60;99.90;;;;;;5050920;28;20754;-61
2023/05/15 05:28:28;;;;;;;25.70;20.17;;;9.60;99.90;;;;;;5052013;28;20480;-61
2023/05/15 05:30:53;;;;;;;23.88;20.38;;;9.60;99.90;;;;;;5049499;28;20037;-61
2023/05/15 05:33:19;;;;;;;26.88;19.95;;;9.60;99.90;;;;;;5052667;28;20090;-60
2023/05/15 05:35:45;;;;;;;25.70;19.83;;;9.70;99.90;;;;;;5068887;28;20106;-60
2023/05/15 05:38:10;;;;;;;27.70;20.40;;;9.70;99.90;;;;;;5053520;28;20056;-61
2023/05/15 05:40:36;;;;;;;23.20;19.00;;;9.80;99.90;;;;;;5051076;28;20045;-60
2023/05/15 05:43:02;;;;;;;25.95;20.42;;;9.90;99.90;;;;;;5050211;28;20048;-61
2023/05/15 05:45:28;;;;;;;26.08;20.88;;;9.90;99.90;;;;;;5052496;28;20412;-62
2023/05/15 05:47:55;;;;;;;23.35;19.58;;;9.90;99.90;;;;;;5051573;28;20033;-63
2023/05/15 05:50:21;;;;;;;24.40;19.88;;;10.00;99.90;;;;;;5051983;28;20072;-62
2023/05/15 05:52:47;;;;;;;25.30;19.73;;;10.00;99.90;;;;;;5051819;28;20403;-62
2023/05/15 05:55:13;;;;;;;22.65;19.17;;;10.00;99.90;;;;;;5052296;28;20119;-62
2023/05/15 05:57:38;;;;;;;28.00;20.42;;;10.00;99.90;;;;;;5048980;28;20467;-63
2023/05/15 06:00:09;;;;;;;25.95;20.50;;;10.10;99.90;;;;;;5050638;28;20124;-63
2023/05/15 06:02:38;;;;;;;24.48;19.55;;;10.30;99.90;;;;;;5049752;28;20048;-60
2023/05/15 06:05:05;;;;;;;22.42;18.00;;;10.50;99.90;;;;;;5051996;28;20436;-62
2023/05/15 06:07:31;;;;;;;22.90;19.63;;;10.70;99.90;;;;;;5052077;28;20083;-63
2023/05/15 06:09:56;;;;;;;25.13;18.98;;;10.90;99.90;;;;;;5050135;28;20134;-61
2023/05/15 06:12:22;;;;;;;23.52;19.52;;;11.10;99.90;;;;;;5051515;28;20040;-62
2023/05/15 06:14:48;;;;;;;20.80;18.60;;;11.20;99.90;;;;;;5033644;28;20045;-63
2023/05/15 06:17:13;;;;;;;22.70;18.00;;;11.40;99.90;;;;;;5050565;28;20529;-62
2023/05/15 06:19:39;;;;;;;22.10;18.13;;;11.50;99.90;;;;;;5050562;28;20036;-62
2023/05/15 06:22:05;;;;;;;22.92;17.98;;;11.60;99.90;;;;;;5046470;28;20040;-61
2023/05/15 06:24:31;;;;;;;22.92;18.30;;;11.80;99.90;;;;;;5052318;28;20037;-60
2023/05/15 06:26:56;;;;;;;23.73;18.50;;;11.90;99.90;;;;;;5048785;28;20041;-61
2023/05/15 06:29:22;;;;;;;20.23;17.52;;;11.90;99.90;;;;;;5051993;28;20074;-64
2023/05/15 06:31:47;;;;;;;22.33;17.52;;;12.10;99.90;;;;;;5049222;28;20037;-62
2023/05/15 06:34:13;;;;;;;22.92;16.35;;;12.10;99.90;;;;;;5050549;28;20140;-61
2023/05/15 06:36:39;;;;;;;20.13;16.52;;;12.10;99.90;;;;;;5048964;28;20030;-61
2023/05/15 06:39:05;;;;;;;20.35;18.00;;;12.20;99.90;;;;;;5050171;28;20037;-64
2023/05/15 06:41:33;;;;;;;20.88;17.52;;;12.40;99.90;;;;;;5053379;28;20037;-62
2023/05/15 06:43:59;;;;;;;19.50;16.10;;;12.60;99.90;;;;;;5051857;28;20410;-62
2023/05/15 06:46:25;;;;;;;18.33;16.25;;;12.70;99.90;;;;;;5050697;28;20119;-61
2023/05/15 06:48:50;;;;;;;19.00;16.13;;;12.70;99.90;;;;;;5049824;28;20141;-59
2023/05/15 06:51:16;;;;;;;20.70;15.75;;;13.00;99.90;;;;;;5051211;28;20462;-62
2023/05/15 06:53:41;;;;;;;18.40;15.73;;;13.10;99.90;;;;;;5050947;28;20049;-62
2023/05/15 06:56:07;;;;;;;20.20;15.50;;;13.20;99.90;;;;;;5051307;28;20044;-63
2023/05/15 06:58:33;;;;;;;19.30;15.45;;;13.30;99.90;;;;;;5051698;28;20395;-62
2023/05/15 07:01:02;;;;;;;21.85;15.32;;;13.40;99.90;;;;;;5048688;28;20115;-62
2023/05/15 07:03:31;;;;;;;17.50;15.35;;;13.30;99.90;;;;;;5067554;28;20083;-61
2023/05/15 07:05:57;;;;;;;17.45;14.55;;;13.40;99.90;;;;;;5050835;28;20122;-63
2023/05/15 07:08:22;;;;;;;17.15;14.18;;;13.50;99.90;;;;;;5051610;28;20032;-63
2023/05/15 07:10:48;;;;;;;17.38;14.52;;;13.50;99.90;;;;;;5050273;28;20388;-61
2023/05/15 07:13:16;;;;;;;15.98;14.27;;;13.60;99.90;;;;;;5049220;28;20037;-60
2023/05/15 07:15:42;;;;;;;17.33;14.75;;;13.70;99.90;;;;;;5051254;28;20057;-62
2023/05/15 07:18:08;;;;;;;19.88;14.95;;;13.70;99.90;;;;;;5032043;28;20186;-61
2023/05/15 07:20:33;;;;;;;18.52;14.32;;;13.80;99.90;;;;;;5047477;28;20468;-62
2023/05/15 07:22:59;;;;;;;15.40;13.77;;;13.90;99.90;;;;;;5051810;28;20450;-61
2023/05/15 07:25:25;;;;;;;17.55;15.02;;;14.00;99.90;;;;;;5050577;28;20047;-62
2023/05/15 07:27:50;;;;;;;15.90;14.20;;;14.10;99.90;;;;;;5051585;28;20036;-63
2023/05/15 07:30:16;;;;;;;15.18;13.57;;;14.30;99.90;;;;;;5050143;28;21522;-62
2023/05/15 07:32:42;;;;;;;16.65;13.95;;;14.40;99.90;;;;;;5050127;28;20047;-62
2023/05/15 07:35:10;;;;;;;17.60;13.82;;;14.50;99.90;;;;;;5050061;28;20045;-63
2023/05/15 07:37:36;;;;;;;14.40;12.90;;;14.40;99.90;;;;;;5051170;28;20114;-61
2023/05/15 07:40:02;;;;;;;14.65;13.15;;;14.60;99.90;;;;;;5050320;28;20036;-62
2023/05/15 07:42:28;;;;;;;15.30;13.68;;;14.70;99.90;;;;;;5049699;28;20049;-63
2023/05/15 07:44:53;;;;;;;16.90;13.70;;;14.80;99.90;;;;;;5051633;28;20051;-62
2023/05/15 07:47:19;;;;;;;16.33;13.88;;;15.00;99.90;;;;;;5051130;28;20484;-61
2023/05/15 07:49:45;;;;;;;15.60;13.95;;;15.10;99.90;;;;;;5050055;28;20032;-61
2023/05/15 07:52:10;;;;;;;14.50;12.95;;;15.30;99.90;;;;;;5049721;28;20048;-63
2023/05/15 07:54:38;;;;;;;16.17;13.30;;;15.40;99.90;;;;;;5049585;28;20110;-61
2023/05/15 07:57:04;;;;;;;16.38;14.65;;;15.60;99.90;;;;;;5051195;28;20029;-62
2023/05/15 07:59:29;;;;;;;15.27;13.68;;;15.60;99.90;;;;;;5051127;28;20083;-62
2023/05/15 08:01:55;;;;;;;14.65;13.20;;;15.70;99.90;;;;;;5051205;28;20064;-62
2023/05/15 08:04:21;;;;;;;14.38;12.75;;;15.90;99.90;;;;;;5066203;28;20123;-60
2023/05/15 08:06:46;;;;;;;13.90;12.48;;;16.00;99.90;;;;;;5050649;28;20041;-62
2023/05/15 08:09:12;;;;;;;13.82;12.43;;;16.10;99.90;;;;;;5049296;28;20095;-61
2023/05/15 08:11:38;;;;;;;13.35;11.52;;;16.40;99.90;;;;;;5049504;28;20411;-61
2023/05/15 08:14:03;;;;;;;14.40;12.10;;;16.40;99.90;;;;;;5050504;28;20561;-64
2023/05/15 08:16:29;;;;;;;14.38;12.85;;;16.60;99.90;;;;;;5050672;28;20041;-64
2023/05/15 08:19:00;;;;;;;15.32;13.73;;;16.50;99.90;;;;;;5050900;28;20536;-64
2023/05/15 08:21:26;;;;;;;14.60;13.10;;;16.40;99.90;;;;;;5050667;28;20447;-60
2023/05/15 08:23:52;;;;;;;14.73;13.23;;;16.30;99.90;;;;;;5049181;28;20044;-62
2023/05/15 08:26:18;;;;;;;14.13;12.55;;;16.20;99.90;;;;;;5048857;28;20033;-62
2023/05/15 08:28:43;;;;;;;14.23;12.48;;;16.20;99.90;;;;;;5049065;28;20044;-63
2023/05/15 08:31:09;;;;;;;13.98;12.52;;;16.30;99.90;;;;;;5049550;28;20365;-63
2023/05/15 08:33:34;;;;;;;13.20;11.80;;;16.60;99.90;;;;;;5048923;28;20037;-62
2023/05/15 08:36:00;;;;;;;15.05;13.30;;;16.90;99.90;;;;;;5050320;28;20048;-61
2023/05/15 08:38:26;;;;;;;15.95;12.57;;;17.00;99.90;;;;;;5050634;28;20408;-64
2023/05/15 08:40:56;;;;;;;14.50;12.05;;;17.00;99.90;;;;;;5050383;28;20045;-60
2023/05/15 08:43:24;;;;;;;15.65;12.63;;;17.00;99.90;;;;;;5050449;28;20044;-61
2023/05/15 08:45:52;;;;;;;17.85;12.20;;;17.00;99.90;;;;;;5050238;28;20057;-62
2023/05/15 08:48:19;;;;;;;13.77;12.40;;;17.20;99.90;;;;;;5050245;28;20045;-61
2023/05/15 08:50:46;;;;;;;14.98;12.93;;;17.40;99.90;;;;;;5049982;28;20048;-63
2023/05/15 08:53:12;;;;;;;13.52;11.95;;;17.50;99.90;;;;;;5050520;28;20488;-63
2023/05/15 08:55:39;;;;;;;12.77;11.05;;;17.40;99.90;;;;;;5050150;28;20076;-63
2023/05/15 08:58:05;;;;;;;15.45;12.13;;;17.40;99.90;;;;;;5050379;28;20041;-61
2023/05/15 09:00:31;;;;;;;14.35;11.10;;;17.60;99.90;;;;;;5049275;28;20098;-63
2023/05/15 09:02:58;;;;;;;13.30;11.57;;;17.60;99.90;;;;;;5032300;28;20091;-63
2023/05/15 09:05:25;;;;;;;13.52;11.98;;;17.70;99.90;;;;;;5032068;28;20041;-62
2023/05/15 09:07:53;;;;;;;14.50;11.15;;;17.60;99.90;;;;;;5049961;28;20052;-62
2023/05/15 09:10:19;;;;;;;12.85;11.20;;;17.90;99.90;;;;;;5050115;28;20033;-62
2023/05/15 09:12:45;;;;;;;13.95;11.63;;;18.00;99.90;;;;;;5048508;28;20116;-63
2023/05/15 09:15:13;;;;;;;13.05;10.52;;;18.00;99.90;;;;;;5048528;28;20136;-61
2023/05/15 09:17:39;;;;;;;12.65;10.65;;;18.10;99.90;;;;;;5049889;28;20045;-64
2023/05/15 09:20:06;;;;;;;12.23;10.05;;;18.10;99.90;;;;;;5049659;28;20388;-62
2023/05/15 09:22:35;;;;;;;10.77;9.60;;;17.90;99.90;;;;;;5050073;28;20122;-64
2023/05/15 09:25:03;;;;;;;11.40;9.90;;;18.10;99.90;;;;;;5049937;28;20491;-61
2023/05/15 09:27:29;;;;;;;11.25;10.07;;;18.10;99.90;;;;;;5048896;28;20098;-63
2023/05/15 09:29:56;;;;;;;12.57;11.27;;;18.00;99.90;;;;;;5049691;28;20044;-62
2023/05/15 09:32:26;;;;;;;12.95;10.48;;;17.90;99.90;;;;;;5032197;28;20063;-63
2023/05/15 09:34:52;;;;;;;13.98;11.23;;;18.00;99.90;;;;;;5048368;28;20073;-64
2023/05/15 09:37:32;;;;;;;13.40;11.77;;;18.00;99.90;;;;;;5051030;28;20072;-61
2023/05/15 09:40:11;;;;;;;12.50;11.23;;;18.20;99.90;;;;;;5052214;28;20041;-61
2023/05/15 09:42:37;;;;;;;12.35;11.18;;;18.30;99.90;;;;;;5054060;28;20064;-62
2023/05/15 09:45:03;;;;;;;14.18;11.75;;;18.30;99.90;;;;;;5068571;28;20037;-61
2023/05/15 09:47:29;;;;;;;13.75;11.70;;;18.20;99.90;;;;;;5053738;28;20471;-63
2023/05/15 09:49:55;;;;;;;11.48;9.93;;;18.30;99.90;;;;;;5051922;28;20123;-63
2023/05/15 09:52:22;;;;;;;11.38;9.98;;;18.30;99.90;;;;;;5053549;28;20387;-62
2023/05/15 09:54:48;;;;;;;13.18;11.63;;;18.30;99.90;;;;;;5053305;28;20041;-62
2023/05/15 09:57:14;;;;;;;12.85;10.57;;;18.40;99.90;;;;;;5051956;28;20041;-62
2023/05/15 09:59:45;;;;;;;12.80;11.60;;;18.40;99.90;;;;;;5051867;28;20048;-63
2023/05/15 10:02:33;;;;;;;11.98;10.18;;;18.40;99.90;;;;;;5051752;28;20041;-63
2023/05/15 10:04:59;;;;;;;10.57;9.48;;;18.40;99.90;;;;;;5053128;28;20083;-61
2023/05/15 10:07:32;;;;;;;10.85;9.68;;;18.60;99.90;;;;;;5053093;28;20480;-63
2023/05/15 10:09:59;;;;;;;11.40;10.18;;;18.80;99.90;;;;;;5052723;28;20442;-64
2023/05/15 10:12:25;;;;;;;11.93;10.68;;;19.00;99.90;;;;;;5053121;28;20040;-62
2023/05/15 10:14:54;;;;;;;11.63;10.43;;;19.40;99.90;;;;;;5051485;28;20404;-62
2023/05/15 10:17:21;;;;;;;11.18;10.07;;;19.50;99.90;;;;;;5051185;28;20128;-61
2023/05/15 10:19:50;;;;;;;10.55;9.52;;;19.70;99.90;;;;;;5067858;28;20085;-64
2023/05/15 10:22:22;;;;;;;10.25;9.18;;;19.40;99.90;;;;;;5051380;28;20037;-62
2023/05/15 10:24:54;;;;;;;12.35;11.15;;;19.20;99.90;;;;;;5052719;28;20128;-62
2023/05/15 10:27:20;;;;;;;12.55;11.18;;;19.10;99.90;;;;;;5051654;28;20124;-63
2023/05/15 10:29:47;;;;;;;14.23;12.80;;;19.00;99.90;;;;;;5052836;28;20037;-61
2023/05/15 10:32:13;;;;;;;14.77;13.18;;;19.10;99.90;;;;;;5051049;28;20083;-62
2023/05/15 10:34:39;;;;;;;15.60;13.95;;;19.40;99.90;;;;;;5067934;28;20052;-61
2023/05/15 10:37:06;;;;;;;14.93;13.23;;;19.50;99.90;;;;;;5052393;28;20033;-62
2023/05/15 10:39:36;;;;;;;14.23;12.73;;;19.40;99.90;;;;;;5051420;28;20060;-62
2023/05/15 10:42:03;;;;;;;17.15;14.88;;;19.40;99.90;;;;;;5051232;28;20111;-63
2023/05/15 10:44:28;;;;;;;15.27;13.63;;;19.50;99.90;;;;;;5052388;28;20036;-62
2023/05/15 10:46:54;;;;;;;14.95;13.45;;;19.10;99.90;;;;;;5051165;28;20120;-62
2023/05/15 10:49:20;;;;;;;16.23;13.95;;;19.20;99.90;;;;;;5051461;28;20063;-62
2023/05/15 10:51:46;;;;;;;16.92;14.93;;;19.20;99.90;;;;;;5050784;28;20056;-62
2023/05/15 10:54:11;;;;;;;16.50;14.25;;;19.20;99.90;;;;;;5051924;28;20052;-61
2023/05/15 10:56:38;;;;;;;17.10;14.48;;;19.50;99.90;;;;;;5051061;28;20102;-63
2023/05/15 10:59:06;;;;;;;16.35;14.48;;;19.70;99.90;;;;;;5052673;28;20095;-61
2023/05/15 11:01:34;;;;;;;15.38;13.80;;;19.70;99.90;;;;;;5050421;28;20037;-63
2023/05/15 11:04:11;;;;;;;16.83;14.57;;;19.60;99.90;;;;;;5051994;28;20093;-64
2023/05/15 11:06:39;;;;;;;15.98;13.90;;;19.60;99.90;;;;;;5050675;28;20052;-64
2023/05/15 11:09:23;;;;;;;14.77;13.23;;;19.60;99.90;;;;;;5052193;28;20025;-62
2023/05/15 11:12:06;;;;;;;14.40;12.57;;;19.60;99.90;;;;;;5052223;28;20037;-62
2023/05/15 11:14:34;;;;;;;;;;;19.60;99.90;;;;;;5050373;28;20187;-63
2023/05/15 11:17:03;;;;;;;13.25;11.77;;;19.60;99.90;;;;;;5051930;28;20069;-62
2023/05/15 11:19:30;;;;;;;14.65;12.40;;;19.40;99.90;;;;;;5051659;28;20033;-62
2023/05/15 11:22:00;;;;;;;13.30;12.00;;;19.30;99.90;;;;;;5050592;28;20047;-62
2023/05/15 11:24:30;;;;;;;12.70;11.50;;;19.20;99.90;;;;;;5051525;28;20043;-63
2023/05/15 11:27:01;;;;;;;14.02;12.55;;;19.30;99.90;;;;;;5050643;28;20048;-63
2023/05/15 11:29:27;;;;;;;14.20;12.05;;;19.30;99.30;;;;;;5066902;28;20033;-64
2023/05/15 11:31:53;;;;;;;12.40;11.10;;;19.30;99.90;;;;;;5066977;28;20052;-62
2023/05/15 11:34:32;;;;;;;13.23;11.05;;;19.30;99.90;;;;;;5051251;28;20045;-62
2023/05/15 11:37:01;;;;;;;13.27;11.88;;;19.50;99.90;;;;;;5050293;28;20029;-63
2023/05/15 11:39:27;;;;;;;13.95;11.30;;;19.40;99.90;;;;;;5049665;28;20037;-62
2023/05/15 11:41:53;;;;;;;13.57;10.63;;;19.70;99.90;;;;;;5051404;28;20025;-65
2023/05/15 11:44:23;;;;;;;11.60;10.40;;;19.90;99.90;;;;;;5051299;28;20507;-62
2023/05/15 11:46:52;;;;;;;14.95;11.02;;;20.10;99.60;;;;;;5051115;28;20127;-64
2023/05/15 11:49:23;;;;;;;9.45;8.48;;;20.20;99.90;;;;;;5051330;28;20048;-62
2023/05/15 11:51:50;;;;;;;9.05;8.15;;;20.00;98.20;;;;;;5051263;28;20043;-60
2023/05/15 11:54:16;;;;;;;12.32;8.73;;;20.00;98.10;;;;;;5049882;28;20084;-63
2023/05/15 11:56:45;;;;;;;10.20;9.20;;;20.00;98.70;;;;;;5049869;28;20127;-65
2023/05/15 11:59:13;;;;;;;12.38;9.80;;;20.10;98.20;;;;;;5050811;28;20103;-63
2023/05/15 12:01:46;;;;;;;12.57;10.57;;;20.00;99.90;;;;;;5050539;28;20049;-63
2023/05/15 12:04:16;;;;;;;11.77;10.43;;;20.00;99.90;;;;;;5049650;28;20059;-62
2023/05/15 12:06:43;;;;;;;12.68;11.23;;;19.90;99.90;;;;;;5050691;28;20041;-62
2023/05/15 12:09:15;;;;;;;13.35;11.15;;;19.60;99.90;;;;;;5050090;28;20098;-62
2023/05/15 12:11:46;;;;;;;14.02;10.82;;;19.40;99.90;;;;;;5049375;28;20041;-64
2023/05/15 12:14:12;;;;;;;14.43;11.77;;;19.20;99.90;;;;;;5050730;28;20075;-62
2023/05/15 12:16:37;;;;;;;13.43;12.00;;;18.90;99.90;;;;;;5050631;28;20076;-64
2023/05/15 12:19:03;;;;;;;14.27;12.88;;;18.80;99.90;;;;;;5050785;28;20495;-61
2023/05/15 12:21:29;;;;;;;13.45;12.15;;;18.60;99.90;;;;;;5050360;28;20102;-61
2023/05/15 12:23:55;;;;;;;14.20;12.77;;;18.70;99.90;;;;;;5050940;28;20064;-63
2023/05/15 12:26:22;;;;;;;12.88;11.48;;;18.70;99.90;;;;;;5049361;28;20076;-63
2023/05/15 12:28:49;;;;;;;13.40;11.80;;;18.80;99.90;;;;;;5050387;28;20036;-62
2023/05/15 12:31:16;;;;;;;13.63;12.32;;;19.00;99.90;;;;;;5049577;28;20048;-63
2023/05/15 12:33:43;;;;;;;12.82;10.88;;;19.10;99.90;;;;;;5032368;28;20140;-63